Decoded Metar for FAOR (TAMBO INTL AIRPT in SOUTH AFRICA) (IATA:JNB) | Meteo·Mobile Aviation Weather
aviador You're here:

FAOR Decoded Metar

TAMBO INTL AIRPT in SOUTH AFRICA
Report Time2018-11-16 18:30:00
UTC Time2018-11-16 18:53:42
Flight Rules vfr VFR
Wind360° at 10 kt
Visibility9999 m
Phenomena:N/A
Clouds:N/A
Expected CloudBase > 9,600 ft AGL from Temp-Dew spread
CeilingNone
Temp26°C (ISA +22)
Dew Point02°C (21% RH)
AAT20.7°C
QNH1025 hPa
Density Alt7,756 ft
Elevation5,550 ft
Report Wrong Elevation
Raw Report
METAR FAOR 161830Z 36010KT 300V020 CAVOK 26/02 Q1025 NOSIG=

Extra information for FAOR:More info

Metar Taf Metar & Taf Last 4 Metars F.Rules Stats Wind Profile Meteogram Temp Stats Airport Information Weather charts Add Link Nearby VenuesMetar ALERT Operation Metar Decoded Social comments